createdAt,value
2018-04-02T00:00:20.846Z,20.50
2018-04-02T00:00:52.478Z,20.50
2018-04-02T00:01:24.106Z,20.51
2018-04-02T00:01:55.730Z,20.49
2018-04-02T00:02:27.357Z,20.49
2018-04-02T00:02:58.986Z,20.47
2018-04-02T00:03:30.610Z,20.47
2018-04-02T00:04:02.239Z,20.47
2018-04-02T00:04:33.870Z,20.45
2018-04-02T00:05:05.499Z,20.43
2018-04-02T00:05:37.170Z,20.43
2018-04-02T00:06:08.794Z,20.42
2018-04-02T00:06:40.418Z,20.41
2018-04-02T00:07:12.042Z,20.40
2018-04-02T00:07:43.690Z,20.40
2018-04-02T00:08:15.313Z,20.40
2018-04-02T00:08:46.940Z,20.39
2018-04-02T00:09:18.618Z,20.39
2018-04-02T00:09:50.242Z,20.38
2018-04-02T00:10:21.876Z,20.37
2018-04-02T00:10:53.525Z,20.36
2018-04-02T00:11:25.162Z,20.37
2018-04-02T00:11:56.810Z,20.35
2018-04-02T00:12:28.444Z,20.35
2018-04-02T00:13:00.071Z,20.34
2018-04-02T00:13:31.699Z,20.34
2018-04-02T00:14:03.338Z,20.32
2018-04-02T00:14:34.980Z,20.31
2018-04-02T00:15:06.606Z,20.30
2018-04-02T00:15:38.230Z,20.30
2018-04-02T00:16:09.854Z,20.32
2018-04-02T00:16:41.482Z,20.32
2018-04-02T00:17:13.110Z,20.30
2018-04-02T00:17:44.793Z,20.30
2018-04-02T00:18:16.421Z,20.30
2018-04-02T00:18:48.050Z,20.29
2018-04-02T00:19:19.675Z,20.29
2018-04-02T00:19:51.298Z,20.27
2018-04-02T00:20:22.926Z,20.30
2018-04-02T00:20:54.546Z,20.28
2018-04-02T00:21:26.174Z,20.27
2018-04-02T00:21:57.802Z,20.29
2018-04-02T00:22:29.438Z,20.31
2018-04-02T00:23:01.106Z,20.32
2018-04-02T00:23:32.734Z,20.33
2018-04-02T00:24:04.393Z,20.33
2018-04-02T00:24:36.018Z,20.30
2018-04-02T00:25:07.649Z,20.33
2018-04-02T00:25:39.278Z,20.35
2018-04-02T00:26:10.906Z,20.36
2018-04-02T00:26:42.534Z,20.36
2018-04-02T00:27:14.174Z,20.36
2018-04-02T00:27:45.846Z,20.38
2018-04-02T00:28:17.470Z,20.40
2018-04-02T00:28:49.098Z,20.43
2018-04-02T00:29:20.722Z,20.46
2018-04-02T00:29:52.345Z,20.48
2018-04-02T00:30:23.970Z,20.51
2018-04-02T00:30:55.603Z,20.55
2018-04-02T00:31:27.230Z,20.60
2018-04-02T00:31:58.858Z,20.62
2018-04-02T00:32:30.499Z,20.64
2018-04-02T00:33:02.164Z,20.65
2018-04-02T00:33:33.799Z,20.65
2018-04-02T00:34:05.470Z,20.66
2018-04-02T00:34:37.095Z,20.64
2018-04-02T00:35:08.726Z,20.66
2018-04-02T00:35:40.350Z,20.67
2018-04-02T00:36:11.976Z,20.69
2018-04-02T00:36:43.598Z,20.70
2018-04-02T00:37:15.226Z,20.71
2018-04-02T00:37:46.859Z,20.72
2018-04-02T00:38:18.486Z,20.72
2018-04-02T00:38:50.153Z,20.73
2018-04-02T00:39:21.778Z,20.75
2018-04-02T00:39:53.401Z,20.76
2018-04-02T00:40:25.031Z,20.75
2018-04-02T00:40:56.654Z,20.75
2018-04-02T00:41:28.304Z,20.74
2018-04-02T00:41:59.934Z,20.75
2018-04-02T00:42:31.610Z,20.77
2018-04-02T00:43:03.239Z,20.81
2018-04-02T00:43:34.880Z,20.85
2018-04-02T00:44:06.518Z,20.87
2018-04-02T00:44:38.138Z,20.89
2018-04-02T00:45:09.762Z,20.89
2018-04-02T00:45:41.391Z,20.93
2018-04-02T00:46:13.025Z,20.93
2018-04-02T00:46:44.659Z,20.94
2018-04-02T00:47:16.292Z,20.94
2018-04-02T00:47:47.958Z,20.97
2018-04-02T00:48:19.582Z,20.96
2018-04-02T00:48:51.291Z,20.96
2018-04-02T00:49:22.905Z,20.97
2018-04-02T00:49:54.569Z,20.94
2018-04-02T00:50:26.199Z,20.95
2018-04-02T00:50:57.870Z,20.97
2018-04-02T00:51:30.090Z,20.96
2018-04-02T00:52:01.715Z,20.95
2018-04-02T00:52:33.342Z,20.93
2018-04-02T00:53:05.007Z,20.93
2018-04-02T00:53:36.634Z,20.94
2018-04-02T00:54:08.264Z,20.91
2018-04-02T00:54:39.907Z,20.93
2018-04-02T00:55:11.534Z,20.94
2018-04-02T00:55:43.210Z,20.95
2018-04-02T00:56:14.833Z,20.92
2018-04-02T00:56:46.466Z,20.95
2018-04-02T00:57:18.098Z,20.93
2018-04-02T00:57:49.731Z,20.93
2018-04-02T00:58:21.405Z,20.89
2018-04-02T00:58:53.029Z,20.92
2018-04-02T00:59:24.653Z,20.91
2018-04-02T00:59:56.289Z,20.93
2018-04-02T01:00:27.918Z,20.92
2018-04-02T01:00:59.558Z,20.93
2018-04-02T01:01:31.198Z,20.95
2018-04-02T01:02:02.822Z,20.94
2018-04-02T01:02:34.446Z,20.75
2018-04-02T01:03:06.070Z,20.91
2018-04-02T01:03:37.733Z,20.89
2018-04-02T01:04:09.390Z,20.89
2018-04-02T01:04:41.014Z,20.89
2018-04-02T01:05:12.646Z,20.88
2018-04-02T01:05:44.336Z,20.87
2018-04-02T01:06:15.996Z,20.85
2018-04-02T01:06:47.617Z,20.86
2018-04-02T01:07:19.242Z,20.86
2018-04-02T01:07:50.916Z,20.84
2018-04-02T01:08:22.541Z,20.80
2018-04-02T01:08:54.183Z,20.78
2018-04-02T01:09:25.813Z,20.77
2018-04-02T01:09:57.446Z,20.76
2018-04-02T01:10:29.074Z,20.70
2018-04-02T01:11:00.702Z,20.72
2018-04-02T01:11:32.325Z,20.71
2018-04-02T01:12:03.946Z,20.71
2018-04-02T01:12:35.570Z,20.68
2018-04-02T01:13:07.237Z,20.66
2018-04-02T01:13:38.866Z,20.64
2018-04-02T01:14:10.494Z,20.63
2018-04-02T01:14:42.230Z,20.60
2018-04-02T01:15:13.853Z,20.58
2018-04-02T01:15:45.478Z,20.56
2018-04-02T01:16:17.104Z,20.57
2018-04-02T01:16:48.774Z,20.54
2018-04-02T01:17:20.415Z,20.53
2018-04-02T01:17:52.038Z,20.52
2018-04-02T01:18:23.672Z,20.51
2018-04-02T01:18:55.299Z,20.50
2018-04-02T01:19:26.931Z,20.49
2018-04-02T01:19:58.559Z,20.49
2018-04-02T01:20:30.187Z,20.48
2018-04-02T01:21:01.819Z,20.46
2018-04-02T01:21:33.454Z,20.46
2018-04-02T01:22:05.150Z,20.46
2018-04-02T01:22:36.781Z,20.46
2018-04-02T01:23:08.406Z,20.44
2018-04-02T01:23:40.031Z,20.42
2018-04-02T01:24:11.659Z,20.42
2018-04-02T01:24:43.287Z,20.42
2018-04-02T01:25:14.910Z,20.42
2018-04-02T01:25:46.550Z,20.41
2018-04-02T01:26:18.173Z,20.39
2018-04-02T01:26:49.802Z,20.38
2018-04-02T01:27:21.483Z,20.35
2018-04-02T01:27:53.119Z,20.36
2018-04-02T01:28:24.742Z,20.35
2018-04-02T01:28:56.373Z,20.34
2018-04-02T01:29:28.018Z,20.34
2018-04-02T01:29:59.647Z,20.33
2018-04-02T01:30:31.298Z,20.32
2018-04-02T01:31:02.927Z,20.31
2018-04-02T01:31:34.550Z,20.30
2018-04-02T01:32:06.178Z,20.29
2018-04-02T01:32:37.850Z,20.29
2018-04-02T01:33:09.482Z,20.29
2018-04-02T01:33:41.166Z,20.29
2018-04-02T01:34:12.791Z,20.28
2018-04-02T01:34:44.414Z,20.27
2018-04-02T01:35:16.038Z,20.26
2018-04-02T01:35:47.666Z,20.26
2018-04-02T01:36:19.291Z,20.26
2018-04-02T01:36:50.926Z,20.27
2018-04-02T01:37:22.550Z,20.23
2018-04-02T01:37:54.178Z,20.25
2018-04-02T01:38:25.809Z,20.23
2018-04-02T01:38:57.473Z,20.23
2018-04-02T01:39:29.097Z,20.23
2018-04-02T01:40:00.722Z,20.24
2018-04-02T01:40:32.349Z,20.24
2018-04-02T01:41:03.973Z,20.23
2018-04-02T01:41:35.598Z,20.23
2018-04-02T01:42:07.234Z,20.21
2018-04-02T01:42:38.867Z,20.24
2018-04-02T01:43:10.490Z,20.24
2018-04-02T01:43:42.119Z,20.24
2018-04-02T01:44:13.785Z,20.22
2018-04-02T01:44:45.415Z,20.24
2018-04-02T01:45:17.115Z,20.24
2018-04-02T01:45:48.746Z,20.26
2018-04-02T01:46:20.374Z,20.26
2018-04-02T01:46:52.015Z,20.28
2018-04-02T01:47:23.646Z,20.28
2018-04-02T01:47:55.278Z,20.27
2018-04-02T01:48:26.903Z,20.28
2018-04-02T01:48:58.525Z,20.31
2018-04-02T01:49:30.151Z,20.29
2018-04-02T01:50:01.824Z,20.31
2018-04-02T01:50:33.467Z,20.34
2018-04-02T01:51:05.090Z,20.35
2018-04-02T01:51:36.714Z,20.39
2018-04-02T01:52:08.342Z,20.40
2018-04-02T01:52:39.970Z,20.41
2018-04-02T01:53:11.594Z,20.44
2018-04-02T01:53:43.225Z,20.47
2018-04-02T01:54:14.851Z,20.49
2018-04-02T01:54:46.474Z,20.52
2018-04-02T01:55:18.159Z,20.55
2018-04-02T01:55:49.786Z,20.56
2018-04-02T01:56:21.410Z,20.54
2018-04-02T01:56:53.332Z,20.57
2018-04-02T01:57:24.963Z,20.58
2018-04-02T01:57:56.593Z,20.59
2018-04-02T01:58:28.218Z,20.61
2018-04-02T01:58:59.855Z,20.60
2018-04-02T01:59:31.486Z,20.61
2018-04-02T02:00:03.115Z,20.63
2018-04-02T02:00:34.742Z,20.63
2018-04-02T02:01:06.370Z,20.63
2018-04-02T02:01:37.998Z,20.66
2018-04-02T02:02:09.643Z,20.68
2018-04-02T02:02:41.288Z,20.68
2018-04-02T02:03:12.925Z,20.70
2018-04-02T02:03:44.550Z,20.75
2018-04-02T02:04:16.214Z,20.73
2018-04-02T02:04:47.848Z,20.71
2018-04-02T02:05:19.478Z,20.73
2018-04-02T02:05:51.126Z,20.73
2018-04-02T02:06:22.772Z,20.76
2018-04-02T02:06:54.438Z,20.75
2018-04-02T02:07:26.061Z,20.73
2018-04-02T02:07:57.694Z,20.73
2018-04-02T02:08:29.318Z,20.76
2018-04-02T02:09:00.947Z,20.76
2018-04-02T02:09:32.582Z,20.76
2018-04-02T02:10:04.206Z,20.75
2018-04-02T02:10:35.834Z,20.77
2018-04-02T02:11:07.458Z,20.75
2018-04-02T02:11:39.081Z,20.74
2018-04-02T02:12:10.754Z,20.73
2018-04-02T02:12:42.377Z,20.74
2018-04-02T02:13:14.007Z,20.74
2018-04-02T02:13:45.635Z,20.74
2018-04-02T02:14:17.302Z,20.73
2018-04-02T02:14:48.926Z,20.74
2018-04-02T02:15:20.549Z,20.74
2018-04-02T02:15:52.174Z,20.76
2018-04-02T02:16:23.802Z,20.78
2018-04-02T02:16:55.431Z,20.87
2018-04-02T02:17:27.160Z,20.93
2018-04-02T02:17:58.785Z,20.85
2018-04-02T02:18:30.467Z,20.78
2018-04-02T02:19:02.099Z,20.72
2018-04-02T02:19:33.730Z,20.66
2018-04-02T02:20:05.349Z,20.60
2018-04-02T02:20:36.994Z,20.57
2018-04-02T02:21:08.618Z,20.56
2018-04-02T02:21:40.242Z,20.57
2018-04-02T02:22:11.866Z,20.59
2018-04-02T02:22:43.494Z,20.60
2018-04-02T02:23:15.118Z,20.59
2018-04-02T02:23:46.794Z,20.62
2018-04-02T02:24:18.458Z,20.62
2018-04-02T02:24:50.090Z,20.63
2018-04-02T02:25:21.714Z,20.63
2018-04-02T02:25:53.338Z,20.63
2018-04-02T02:26:24.986Z,20.62
2018-04-02T02:26:56.615Z,20.63
2018-04-02T02:27:28.241Z,20.65
2018-04-02T02:27:59.870Z,20.62
2018-04-02T02:28:31.549Z,20.65
2018-04-02T02:29:03.154Z,20.64
2018-04-02T02:29:34.821Z,20.62
2018-04-02T02:30:06.447Z,20.63
2018-04-02T02:30:38.124Z,20.61
2018-04-02T02:31:09.747Z,20.62
2018-04-02T02:31:41.378Z,20.63
2018-04-02T02:32:13.011Z,20.59
2018-04-02T02:32:44.641Z,20.56
2018-04-02T02:33:16.271Z,20.53
2018-04-02T02:33:47.907Z,20.52
2018-04-02T02:34:19.536Z,20.50
2018-04-02T02:34:51.157Z,20.51
2018-04-02T02:35:22.783Z,20.49
2018-04-02T02:35:54.406Z,20.47
2018-04-02T02:36:26.032Z,20.45
2018-04-02T02:36:57.662Z,20.44
2018-04-02T02:37:29.295Z,20.46
2018-04-02T02:38:00.921Z,20.43
2018-04-02T02:38:32.551Z,20.42
2018-04-02T02:39:04.195Z,20.42
2018-04-02T02:39:35.877Z,20.42
2018-04-02T02:40:07.516Z,20.38
2018-04-02T02:40:39.145Z,20.36
2018-04-02T02:41:10.772Z,20.33
2018-04-02T02:41:42.398Z,20.32
2018-04-02T02:42:14.044Z,20.30
2018-04-02T02:42:45.694Z,20.30
2018-04-02T02:43:17.338Z,20.31
2018-04-02T02:43:48.974Z,20.31
2018-04-02T02:44:20.607Z,20.30
2018-04-02T02:44:52.253Z,20.32
2018-04-02T02:45:23.891Z,20.30
2018-04-02T02:45:55.519Z,20.30
2018-04-02T02:46:27.142Z,20.30
2018-04-02T02:46:58.774Z,20.29
2018-04-02T02:47:30.423Z,20.28
2018-04-02T02:48:02.061Z,20.28
2018-04-02T02:48:33.687Z,20.28
2018-04-02T02:49:05.328Z,20.29
2018-04-02T02:49:36.953Z,20.30
2018-04-02T02:50:08.618Z,20.30
2018-04-02T02:50:40.242Z,20.26
2018-04-02T02:51:11.866Z,20.27
2018-04-02T02:51:43.491Z,20.25
2018-04-02T02:52:15.122Z,20.24
2018-04-02T02:52:46.754Z,20.19
2018-04-02T02:53:18.382Z,20.21
2018-04-02T02:53:50.015Z,20.21
2018-04-02T02:54:21.682Z,20.17
2018-04-02T02:54:53.306Z,20.18
2018-04-02T02:55:24.938Z,20.17
2018-04-02T02:55:56.575Z,20.16
2018-04-02T02:56:28.198Z,20.16
2018-04-02T02:56:59.867Z,20.15
2018-04-02T02:57:31.494Z,20.14
2018-04-02T02:58:03.122Z,20.13
2018-04-02T02:58:34.750Z,20.15
2018-04-02T02:59:06.379Z,20.15
2018-04-02T02:59:38.006Z,20.14
2018-04-02T03:00:09.642Z,20.14
2018-04-02T03:00:41.265Z,20.14
2018-04-02T03:01:12.946Z,20.13
2018-04-02T03:01:44.575Z,20.14
2018-04-02T03:02:16.207Z,20.13
2018-04-02T03:02:47.834Z,20.14
2018-04-02T03:03:19.467Z,20.15
2018-04-02T03:03:51.094Z,20.16
2018-04-02T03:04:22.718Z,20.18
2018-04-02T03:04:54.363Z,20.19
2018-04-02T03:05:26.007Z,20.18
2018-04-02T03:05:57.639Z,20.19
2018-04-02T03:06:29.307Z,20.19
2018-04-02T03:07:00.940Z,20.23
2018-04-02T03:07:32.624Z,20.22
2018-04-02T03:08:04.246Z,20.25
2018-04-02T03:08:35.871Z,20.25
2018-04-02T03:09:07.503Z,20.25
2018-04-02T03:09:39.139Z,20.24
2018-04-02T03:10:10.771Z,20.24
2018-04-02T03:10:42.395Z,20.29
2018-04-02T03:11:14.020Z,20.29
2018-04-02T03:11:45.643Z,20.31
2018-04-02T03:12:17.270Z,20.32
2018-04-02T03:12:48.938Z,20.33
2018-04-02T03:13:20.568Z,20.33
2018-04-02T03:13:52.227Z,20.35
2018-04-02T03:14:23.854Z,20.40
2018-04-02T03:14:55.478Z,20.39
2018-04-02T03:15:27.102Z,20.41
2018-04-02T03:15:58.729Z,20.41
2018-04-02T03:16:30.358Z,20.44
2018-04-02T03:17:01.982Z,20.41
2018-04-02T03:17:33.662Z,20.46
2018-04-02T03:18:05.295Z,20.44
2018-04-02T03:18:36.927Z,20.45
2018-04-02T03:19:08.549Z,20.45
2018-04-02T03:19:40.170Z,20.46
2018-04-02T03:20:11.798Z,20.46
2018-04-02T03:20:43.423Z,20.48
2018-04-02T03:21:15.049Z,20.48
2018-04-02T03:21:46.674Z,20.49
2018-04-02T03:22:18.303Z,20.49
2018-04-02T03:22:49.978Z,20.47
2018-04-02T03:23:21.607Z,20.49
2018-04-02T03:23:53.234Z,20.53
2018-04-02T03:24:24.862Z,20.40
2018-04-02T03:24:56.490Z,20.52
2018-04-02T03:25:28.110Z,20.52
2018-04-02T03:25:59.778Z,20.51
2018-04-02T03:26:31.402Z,20.54
2018-04-02T03:27:03.026Z,20.53
2018-04-02T03:27:34.649Z,20.52
2018-04-02T03:28:06.278Z,20.50
2018-04-02T03:28:37.902Z,20.52
2018-04-02T03:29:09.530Z,20.50
2018-04-02T03:29:41.158Z,20.51
2018-04-02T03:30:12.795Z,20.51
2018-04-02T03:30:44.423Z,20.52
2018-04-02T03:31:16.047Z,20.54
2018-04-02T03:31:47.671Z,20.54
2018-04-02T03:32:19.298Z,20.55
2018-04-02T03:32:50.922Z,20.54
2018-04-02T03:33:22.559Z,20.55
2018-04-02T03:33:54.190Z,20.55
2018-04-02T03:34:25.909Z,20.55
2018-04-02T03:34:57.566Z,20.55
2018-04-02T03:35:29.186Z,20.57
2018-04-02T03:36:00.845Z,20.60
2018-04-02T03:36:32.479Z,20.56
2018-04-02T03:37:04.113Z,20.56
2018-04-02T03:37:35.738Z,20.54
2018-04-02T03:38:07.374Z,20.55
2018-04-02T03:38:39.002Z,20.54
2018-04-02T03:39:10.626Z,20.51
2018-04-02T03:39:42.254Z,20.50
2018-04-02T03:40:13.918Z,20.50
2018-04-02T03:40:45.544Z,20.52
2018-04-02T03:41:17.213Z,20.53
2018-04-02T03:41:48.838Z,20.54
2018-04-02T03:42:20.466Z,20.53
2018-04-02T03:42:52.090Z,20.54
2018-04-02T03:43:23.715Z,20.55
2018-04-02T03:43:55.342Z,20.56
2018-04-02T03:44:26.970Z,20.54
2018-04-02T03:44:58.598Z,20.55
2018-04-02T03:45:30.271Z,20.50
2018-04-02T03:46:01.899Z,20.50
2018-04-02T03:46:33.525Z,20.48
2018-04-02T03:47:05.151Z,20.48
2018-04-02T03:47:36.775Z,20.47
2018-04-02T03:48:08.402Z,20.47
2018-04-02T03:48:40.027Z,20.44
2018-04-02T03:49:11.650Z,20.41
2018-04-02T03:49:43.350Z,20.39
2018-04-02T03:50:14.978Z,20.38
2018-04-02T03:50:46.602Z,20.35
2018-04-02T03:51:18.234Z,20.37
2018-04-02T03:51:49.866Z,20.34
2018-04-02T03:52:21.489Z,20.31
2018-04-02T03:52:53.110Z,20.32
2018-04-02T03:53:24.763Z,20.30
2018-04-02T03:53:56.395Z,20.28
2018-04-02T03:54:28.023Z,20.24
2018-04-02T03:54:59.727Z,20.23
2018-04-02T03:55:31.407Z,20.19
2018-04-02T03:56:03.038Z,20.17
2018-04-02T03:56:34.665Z,20.17
2018-04-02T03:57:06.339Z,20.16
2018-04-02T03:57:37.967Z,20.15
2018-04-02T03:58:09.592Z,20.13
2018-04-02T03:58:41.222Z,20.12
2018-04-02T03:59:12.846Z,20.12
2018-04-02T03:59:44.470Z,20.10
2018-04-02T04:00:16.138Z,20.09
2018-04-02T04:00:47.761Z,20.08
2018-04-02T04:01:19.391Z,20.08
2018-04-02T04:01:51.022Z,20.07
2018-04-02T04:02:22.715Z,20.06
2018-04-02T04:02:54.355Z,20.06
2018-04-02T04:03:25.978Z,20.06
2018-04-02T04:03:57.602Z,20.07
2018-04-02T04:04:29.226Z,20.08
2018-04-02T04:05:00.894Z,20.08
2018-04-02T04:05:32.523Z,20.07
2018-04-02T04:06:04.146Z,20.04
2018-04-02T04:06:35.830Z,20.05
2018-04-02T04:07:07.458Z,20.02
2018-04-02T04:07:39.083Z,20.03
2018-04-02T04:08:10.705Z,20.02
2018-04-02T04:08:42.335Z,20.02
2018-04-02T04:09:13.961Z,19.98
2018-04-02T04:09:45.590Z,19.97
2018-04-02T04:10:17.218Z,19.98
2018-04-02T04:10:48.846Z,19.95
2018-04-02T04:11:20.495Z,19.95
2018-04-02T04:11:52.163Z,19.94
2018-04-02T04:12:23.795Z,19.93
2018-04-02T04:12:55.419Z,19.92
2018-04-02T04:13:27.043Z,19.90
2018-04-02T04:13:58.665Z,19.90
2018-04-02T04:14:30.299Z,19.89
2018-04-02T04:15:01.934Z,19.89
2018-04-02T04:15:33.562Z,19.88
2018-04-02T04:16:05.185Z,19.88
2018-04-02T04:16:36.810Z,19.88
2018-04-02T04:17:08.447Z,19.87
2018-04-02T04:17:40.082Z,19.86
2018-04-02T04:18:11.707Z,19.86
2018-04-02T04:18:43.335Z,19.86
2018-04-02T04:19:14.966Z,19.85
2018-04-02T04:19:46.593Z,19.82
2018-04-02T04:20:18.278Z,19.84
2018-04-02T04:20:49.907Z,19.84
2018-04-02T04:21:21.538Z,19.84
2018-04-02T04:21:53.172Z,19.84
2018-04-02T04:22:24.798Z,19.83
2018-04-02T04:22:56.418Z,19.85
2018-04-02T04:23:28.041Z,19.84
2018-04-02T04:23:59.670Z,19.84
2018-04-02T04:24:31.290Z,19.84
2018-04-02T04:25:02.918Z,19.86
2018-04-02T04:25:34.591Z,19.87
2018-04-02T04:26:06.222Z,19.92
2018-04-02T04:26:37.873Z,19.93
2018-04-02T04:27:09.517Z,19.98
2018-04-02T04:27:41.146Z,19.98
2018-04-02T04:28:12.811Z,20.02
2018-04-02T04:28:44.439Z,20.05
2018-04-02T04:29:16.067Z,20.09
2018-04-02T04:29:47.695Z,20.08
2018-04-02T04:30:19.313Z,20.12
2018-04-02T04:30:50.944Z,20.15
2018-04-02T04:31:22.575Z,20.16
2018-04-02T04:31:54.198Z,20.19
2018-04-02T04:32:25.832Z,20.21
2018-04-02T04:32:57.494Z,20.21
2018-04-02T04:33:29.114Z,20.21
2018-04-02T04:34:00.758Z,20.21
2018-04-02T04:34:32.390Z,20.21
2018-04-02T04:35:04.023Z,20.21
2018-04-02T04:35:35.694Z,20.23
2018-04-02T04:36:07.322Z,20.23
2018-04-02T04:36:38.951Z,20.23
2018-04-02T04:37:10.579Z,20.24
2018-04-02T04:37:42.267Z,20.29
2018-04-02T04:38:13.907Z,20.30
2018-04-02T04:38:45.534Z,20.27
2018-04-02T04:39:17.157Z,20.29
2018-04-02T04:39:48.782Z,20.31
2018-04-02T04:40:20.472Z,20.32
2018-04-02T04:40:52.067Z,20.32
2018-04-02T04:41:23.699Z,20.32
2018-04-02T04:41:55.335Z,20.31
2018-04-02T04:42:26.967Z,20.32
2018-04-02T04:42:58.633Z,20.33
2018-04-02T04:43:30.315Z,20.31
2018-04-02T04:44:01.942Z,20.32
2018-04-02T04:44:33.569Z,20.31
2018-04-02T04:45:05.238Z,20.33
2018-04-02T04:45:36.861Z,20.33
2018-04-02T04:46:08.491Z,20.36
2018-04-02T04:46:40.114Z,20.38
2018-04-02T04:47:11.738Z,20.39
2018-04-02T04:47:43.427Z,20.40
2018-04-02T04:48:15.054Z,20.40
2018-04-02T04:48:46.673Z,20.40
2018-04-02T04:49:18.302Z,20.42
2018-04-02T04:49:49.925Z,20.43
2018-04-02T04:50:21.557Z,20.43
2018-04-02T04:50:53.198Z,20.42
2018-04-02T04:51:24.828Z,20.43
2018-04-02T04:51:56.454Z,20.44
2018-04-02T04:52:28.077Z,20.43
2018-04-02T04:52:59.710Z,20.43
2018-04-02T04:53:31.334Z,20.46
2018-04-02T04:54:02.954Z,20.48
2018-04-02T04:54:34.579Z,20.50
2018-04-02T04:55:06.203Z,20.48
2018-04-02T04:55:37.834Z,20.48
2018-04-02T04:56:09.453Z,20.47
2018-04-02T04:56:41.074Z,20.49
2018-04-02T04:57:12.703Z,20.50
2018-04-02T04:57:44.334Z,20.51
2018-04-02T04:58:15.998Z,20.51
2018-04-02T04:58:47.621Z,20.52
2018-04-02T04:59:19.247Z,20.51
2018-04-02T04:59:50.870Z,20.51
2018-04-02T05:00:22.550Z,20.48
2018-04-02T05:00:54.173Z,20.48
2018-04-02T05:01:25.806Z,20.50
2018-04-02T05:01:57.434Z,20.48
2018-04-02T05:02:29.078Z,20.48
2018-04-02T05:03:00.705Z,20.48
2018-04-02T05:03:32.334Z,20.49
2018-04-02T05:04:03.954Z,20.47
2018-04-02T05:04:35.578Z,20.51
2018-04-02T05:05:07.202Z,20.50
2018-04-02T05:05:38.877Z,20.51
2018-04-02T05:06:10.498Z,20.46
2018-04-02T05:06:42.125Z,20.48
2018-04-02T05:07:13.759Z,20.51
2018-04-02T05:07:45.395Z,20.50
2018-04-02T05:08:17.019Z,20.48
2018-04-02T05:08:48.651Z,20.47
2018-04-02T05:09:20.286Z,20.47
2018-04-02T05:09:51.914Z,20.47
2018-04-02T05:10:23.538Z,20.46
2018-04-02T05:10:55.162Z,20.47
2018-04-02T05:11:26.791Z,20.48
2018-04-02T05:11:58.418Z,20.48
2018-04-02T05:12:30.046Z,20.46
2018-04-02T05:13:01.669Z,20.47
2018-04-02T05:13:33.294Z,20.46
2018-04-02T05:14:04.917Z,20.46
2018-04-02T05:14:36.545Z,20.46
2018-04-02T05:15:08.215Z,20.42
2018-04-02T05:15:39.894Z,20.42
2018-04-02T05:16:11.522Z,20.41
2018-04-02T05:16:43.178Z,20.38
2018-04-02T05:17:14.806Z,20.39
2018-04-02T05:17:46.434Z,20.38
2018-04-02T05:18:18.053Z,20.38
2018-04-02T05:18:49.726Z,20.38
2018-04-02T05:19:21.354Z,20.41
2018-04-02T05:19:52.985Z,20.43
2018-04-02T05:20:24.614Z,20.42
2018-04-02T05:20:56.239Z,20.42
2018-04-02T05:21:27.881Z,20.43
2018-04-02T05:21:59.501Z,20.40
2018-04-02T05:22:31.126Z,20.39
2018-04-02T05:23:02.749Z,20.36
2018-04-02T05:23:34.406Z,20.39
2018-04-02T05:24:06.038Z,20.33
2018-04-02T05:24:37.662Z,20.36
2018-04-02T05:25:09.285Z,20.34
2018-04-02T05:25:40.914Z,20.36
2018-04-02T05:26:12.538Z,20.36
2018-04-02T05:26:44.201Z,20.36
2018-04-02T05:27:15.875Z,20.34
2018-04-02T05:27:47.526Z,20.33
2018-04-02T05:28:19.150Z,20.36
2018-04-02T05:28:50.789Z,20.30
2018-04-02T05:29:22.418Z,20.23
2018-04-02T05:29:54.050Z,20.18
2018-04-02T05:30:25.674Z,20.14
2018-04-02T05:30:57.301Z,20.11
2018-04-02T05:31:29.582Z,20.08
2018-04-02T05:32:01.206Z,20.09
2018-04-02T05:32:32.890Z,20.11
2018-04-02T05:33:04.518Z,20.09
2018-04-02T05:33:36.146Z,20.08
2018-04-02T05:34:07.769Z,20.06
2018-04-02T05:34:39.393Z,20.04
2018-04-02T05:35:11.025Z,20.01
2018-04-02T05:35:42.646Z,20.00
2018-04-02T05:36:14.278Z,19.99
2018-04-02T05:36:45.911Z,19.98
2018-04-02T05:37:17.542Z,19.96
2018-04-02T05:37:49.214Z,19.97
2018-04-02T05:38:20.838Z,19.95
2018-04-02T05:38:52.462Z,19.94
2018-04-02T05:39:24.086Z,19.92
2018-04-02T05:39:55.713Z,19.92
2018-04-02T05:40:27.342Z,19.93
2018-04-02T05:40:58.970Z,19.92
2018-04-02T05:41:30.599Z,19.90
2018-04-02T05:42:02.253Z,19.89
2018-04-02T05:42:33.882Z,19.94
2018-04-02T05:43:05.557Z,19.98
2018-04-02T05:43:37.178Z,19.99
2018-04-02T05:44:08.798Z,19.99
2018-04-02T05:44:40.422Z,20.01
2018-04-02T05:45:12.082Z,19.99
2018-04-02T05:45:43.706Z,19.99
2018-04-02T05:46:15.330Z,19.99
2018-04-02T05:46:46.954Z,19.99
2018-04-02T05:47:18.586Z,19.98
2018-04-02T05:47:50.209Z,19.99
2018-04-02T05:48:21.873Z,19.99
2018-04-02T05:48:53.508Z,19.99
2018-04-02T05:49:25.143Z,19.99
2018-04-02T05:49:56.971Z,20.01
2018-04-02T05:50:28.598Z,20.03
2018-04-02T05:51:00.304Z,20.03
2018-04-02T05:51:31.910Z,20.07
2018-04-02T05:52:03.566Z,20.09
2018-04-02T05:52:35.190Z,20.12
2018-04-02T05:53:06.814Z,20.15
2018-04-02T05:53:38.442Z,20.17
2018-04-02T05:54:10.068Z,20.16
2018-04-02T05:54:41.690Z,20.18
2018-04-02T05:55:13.357Z,20.18
2018-04-02T05:55:44.986Z,20.16
2018-04-02T05:56:16.613Z,20.17
2018-04-02T05:56:48.278Z,20.21
2018-04-02T05:57:19.911Z,20.21
2018-04-02T05:57:51.554Z,20.22
2018-04-02T05:58:23.177Z,20.23
2018-04-02T05:58:54.802Z,20.23
2018-04-02T05:59:26.430Z,20.23
2018-04-02T05:59:58.063Z,20.24
2018-04-02T06:00:29.686Z,20.24
2018-04-02T06:01:01.314Z,20.26
2018-04-02T06:01:32.943Z,20.25
2018-04-02T06:02:04.592Z,20.28
2018-04-02T06:02:36.222Z,20.29
2018-04-02T06:03:07.846Z,20.30
2018-04-02T06:03:39.514Z,20.31
2018-04-02T06:04:11.149Z,20.33
2018-04-02T06:04:42.769Z,20.36
2018-04-02T06:05:14.459Z,20.36
2018-04-02T06:05:46.052Z,20.36
2018-04-02T06:06:17.718Z,20.38
2018-04-02T06:06:49.345Z,20.39
2018-04-02T06:07:21.014Z,20.40
2018-04-02T06:07:52.642Z,20.41
2018-04-02T06:08:24.266Z,20.41
2018-04-02T06:08:55.894Z,20.40
2018-04-02T06:09:27.522Z,20.39
2018-04-02T06:09:59.146Z,20.41
2018-04-02T06:10:30.800Z,20.43
2018-04-02T06:11:02.452Z,20.44
2018-04-02T06:11:34.100Z,20.44
2018-04-02T06:12:05.770Z,20.41
2018-04-02T06:12:37.399Z,20.44
2018-04-02T06:13:09.029Z,20.44
2018-04-02T06:13:40.650Z,20.45
2018-04-02T06:14:12.283Z,20.44
2018-04-02T06:14:43.905Z,20.42
2018-04-02T06:15:15.534Z,20.41
2018-04-02T06:15:47.159Z,20.43
2018-04-02T06:16:18.787Z,20.42
2018-04-02T06:16:50.419Z,20.41
2018-04-02T06:17:22.087Z,20.43
2018-04-02T06:17:53.716Z,20.43
2018-04-02T06:18:25.346Z,20.42
2018-04-02T06:18:56.970Z,20.41
2018-04-02T06:19:28.593Z,20.43
2018-04-02T06:20:00.222Z,20.42
2018-04-02T06:20:31.889Z,20.40
2018-04-02T06:21:03.509Z,20.41
2018-04-02T06:21:35.129Z,20.43
2018-04-02T06:22:06.754Z,20.41
2018-04-02T06:22:38.379Z,20.42
2018-04-02T06:23:10.010Z,20.41
2018-04-02T06:23:41.635Z,20.40
2018-04-02T06:24:13.294Z,20.41
2018-04-02T06:24:44.922Z,20.38
2018-04-02T06:25:16.546Z,20.40
2018-04-02T06:25:48.165Z,20.40
2018-04-02T06:26:19.812Z,20.39
2018-04-02T06:26:51.434Z,20.38
2018-04-02T06:27:23.063Z,20.40
2018-04-02T06:27:54.734Z,20.39
2018-04-02T06:28:26.367Z,20.41
2018-04-02T06:28:57.998Z,20.41
2018-04-02T06:29:29.627Z,20.40
2018-04-02T06:30:01.254Z,20.38
2018-04-02T06:30:32.882Z,20.34
2018-04-02T06:31:04.506Z,20.36
2018-04-02T06:31:36.145Z,20.34
2018-04-02T06:32:07.769Z,20.35
2018-04-02T06:32:39.391Z,20.34
2018-04-02T06:33:11.062Z,20.36
2018-04-02T06:33:42.690Z,20.35
2018-04-02T06:34:14.318Z,20.34
2018-04-02T06:34:45.941Z,20.36
2018-04-02T06:35:18.581Z,20.34
2018-04-02T06:35:50.219Z,20.33
2018-04-02T06:36:21.855Z,20.33
2018-04-02T06:36:53.545Z,20.33
2018-04-02T06:37:25.158Z,20.32
2018-04-02T06:37:56.830Z,20.32
2018-04-02T06:38:28.454Z,20.33
2018-04-02T06:39:00.078Z,20.30
2018-04-02T06:39:31.702Z,20.32
2018-04-02T06:40:03.334Z,20.33
2018-04-02T06:40:34.966Z,20.32
2018-04-02T06:41:06.586Z,20.31
2018-04-02T06:41:38.282Z,20.32
2018-04-02T06:42:09.906Z,20.28
2018-04-02T06:42:41.538Z,20.28
2018-04-02T06:43:13.167Z,20.26
2018-04-02T06:43:44.831Z,20.26
2018-04-02T06:44:16.511Z,20.24
2018-04-02T06:44:48.175Z,20.23
2018-04-02T06:45:19.810Z,20.22
2018-04-02T06:45:51.437Z,20.23
2018-04-02T06:46:23.062Z,20.22
2018-04-02T06:46:54.691Z,20.20
2018-04-02T06:47:26.318Z,20.20